< < Back
Terminal Aerodrome Forecast


Current Version              Previous Versions:   1  2  3  4  5  6  7  8  9  

Terminal Aerodrome Forecast

981
FTUS42 KGSP 250538
TAFAND
TAF
KAND 250538Z 2506/2606 00000KT P6SM FEW080 SCT250
     FM251500 24006KT P6SM SCT060 BKN250
     FM260100 21003KT P6SM SCT070 BKN120=



Latest METAR

870
SAUS70 KWBC 251600 RRC
MTRAND
METAR KAND 251556Z AUTO 23008KT 10SM CLR 27/14 A3026 RMK AO2 SLP240
T02720144


USA.gov is the U.S. government's official web portal to all federal, state and local government web resources and services.